createdAt,value
2023-02-08T00:00:10.885Z,103590.84
2023-02-08T00:02:13.013Z,103593.53
2023-02-08T00:04:15.064Z,103593.13
2023-02-08T00:06:17.381Z,103593.25
2023-02-08T00:08:19.449Z,103596.06
2023-02-08T00:10:21.594Z,103604.25
2023-02-08T00:12:23.937Z,103604.25
2023-02-08T00:14:26.004Z,103609.38
2023-02-08T00:16:28.061Z,103614.72
2023-02-08T00:18:30.265Z,103617.66
2023-02-08T00:20:32.415Z,103613.44
2023-02-08T00:22:34.557Z,103614.47
2023-02-08T00:24:36.521Z,103611.28
2023-02-08T00:26:38.664Z,103604.00
2023-02-08T00:28:40.725Z,103605.00
2023-02-08T00:30:43.639Z,103606.81
2023-02-08T00:32:45.689Z,103603.75
2023-02-08T00:34:47.775Z,103606.16
2023-02-08T00:36:49.812Z,103597.72
2023-02-08T00:38:51.924Z,103597.97
2023-02-08T00:40:54.002Z,103605.00
2023-02-08T00:42:56.093Z,103599.88
2023-02-08T00:44:58.625Z,103601.69
2023-02-08T00:47:00.668Z,103600.94
2023-02-08T00:49:02.905Z,103591.72
2023-02-08T00:51:08.945Z,103590.06
2023-02-08T00:53:10.981Z,103585.06
2023-02-08T00:55:12.962Z,103588.91
2023-02-08T00:57:15.462Z,103595.06
2023-02-08T00:59:17.482Z,103592.50
2023-02-08T01:01:19.582Z,103590.31
2023-02-08T01:03:23.032Z,103590.44
2023-02-08T01:05:25.025Z,103587.13
2023-02-08T01:07:27.030Z,103597.34
2023-02-08T01:09:29.025Z,103594.78
2023-02-08T01:11:31.108Z,103585.34
2023-02-08T01:13:33.127Z,103589.97
2023-02-08T01:15:35.159Z,103584.44
2023-02-08T01:17:37.194Z,103582.66
2023-02-08T01:19:41.118Z,103588.00
2023-02-08T01:21:44.397Z,103581.75
2023-02-08T01:23:46.596Z,103577.41
2023-02-08T01:25:48.620Z,103573.97
2023-02-08T01:27:50.633Z,103573.97
2023-02-08T01:29:52.959Z,103574.09
2023-02-08T01:31:54.972Z,103567.97
2023-02-08T01:33:58.399Z,103568.19
2023-02-08T01:36:00.436Z,103560.16
2023-02-08T01:38:02.467Z,103555.16
2023-02-08T01:40:05.024Z,103553.25
2023-02-08T01:42:07.025Z,103555.16
2023-02-08T01:44:12.528Z,103550.56
2023-02-08T01:46:14.435Z,103549.38
2023-02-08T01:48:23.356Z,103550.03
2023-02-08T01:50:32.254Z,103546.59
2023-02-08T01:52:34.351Z,103546.72
2023-02-08T01:54:43.359Z,103546.47
2023-02-08T01:56:47.346Z,103553.47
2023-02-08T01:58:55.012Z,103550.16
2023-02-08T02:00:57.010Z,103547.59
2023-02-08T02:03:00.984Z,103544.78
2023-02-08T02:05:03.473Z,103549.00
2023-02-08T02:07:06.418Z,103547.84
2023-02-08T02:09:17.992Z,103551.56
2023-02-08T02:11:20.714Z,103541.84
2023-02-08T02:13:25.146Z,103545.16
2023-02-08T02:15:27.168Z,103541.84
2023-02-08T02:17:30.304Z,103547.34
2023-02-08T02:19:35.734Z,103542.59
2023-02-08T02:21:43.966Z,103550.78
2023-02-08T02:23:50.399Z,103544.13
2023-02-08T02:25:55.337Z,103535.94
2023-02-08T02:28:03.595Z,103548.09
2023-02-08T02:30:12.734Z,103552.56
2023-02-08T02:32:24.183Z,103538.00
2023-02-08T02:34:32.266Z,103532.91
2023-02-08T02:36:40.504Z,103528.56
2023-02-08T02:38:49.361Z,103523.44
2023-02-08T02:41:06.474Z,103516.56
2023-02-08T02:43:16.253Z,103512.22
2023-02-08T02:45:27.308Z,103511.03
2023-02-08T02:47:37.302Z,103505.28
2023-02-08T02:49:51.523Z,103499.78
2023-02-08T02:52:02.220Z,103495.97
2023-02-08T02:54:11.071Z,103493.25
2023-02-08T02:56:18.482Z,103493.00
2023-02-08T02:58:24.048Z,103490.31
2023-02-08T03:00:28.938Z,103490.19
2023-02-08T03:02:30.904Z,103480.47
2023-02-08T03:04:33.667Z,103492.63
2023-02-08T03:06:46.874Z,103482.00
2023-02-08T03:08:55.615Z,103487.09
2023-02-08T03:11:00.974Z,103476.63
2023-02-08T03:13:15.880Z,103479.19
2023-02-08T03:15:22.481Z,103472.19
2023-02-08T03:17:34.234Z,103471.00
2023-02-08T03:19:43.921Z,103474.31
2023-02-08T03:21:56.938Z,103468.44
2023-02-08T03:24:05.092Z,103478.28
2023-02-08T03:26:09.918Z,103482.25
2023-02-08T03:28:20.742Z,103478.41
2023-02-08T03:30:29.127Z,103470.75
2023-02-08T03:32:40.638Z,103473.81
2023-02-08T03:34:49.395Z,103466.75
2023-02-08T03:36:58.385Z,103462.81
2023-02-08T03:39:03.510Z,103453.34
2023-02-08T03:41:10.344Z,103453.59
2023-02-08T03:43:18.253Z,103459.81
2023-02-08T03:45:27.208Z,103465.44
2023-02-08T03:47:35.408Z,103456.25
2023-02-08T03:49:39.521Z,103459.84
2023-02-08T03:51:43.847Z,103461.03
2023-02-08T03:53:46.887Z,103469.44
2023-02-08T03:55:53.355Z,103463.69
2023-02-08T03:57:59.934Z,103469.56
2023-02-08T04:00:07.301Z,103464.34
2023-02-08T04:02:14.268Z,103470.81
2023-02-08T04:04:18.970Z,103473.19
2023-02-08T04:06:22.169Z,103465.81
2023-02-08T04:08:26.243Z,103468.13
2023-02-08T04:10:28.190Z,103470.66
2023-02-08T04:12:30.807Z,103466.69
2023-02-08T04:14:32.736Z,103461.03
2023-02-08T04:16:34.720Z,103458.44
2023-02-08T04:18:36.676Z,103465.84
2023-02-08T04:20:39.165Z,103468.81
2023-02-08T04:22:41.373Z,103463.50
2023-02-08T04:24:43.376Z,103455.59
2023-02-08T04:26:45.396Z,103459.16
2023-02-08T04:28:47.444Z,103462.66
2023-02-08T04:30:49.771Z,103469.56
2023-02-08T04:32:51.719Z,103465.59
2023-02-08T04:34:53.734Z,103455.78
2023-02-08T04:36:55.736Z,103452.22
2023-02-08T04:38:58.824Z,103454.75
2023-02-08T04:41:00.852Z,103451.88
2023-02-08T04:43:02.887Z,103451.59
2023-02-08T04:45:05.347Z,103450.16
2023-02-08T04:47:07.296Z,103448.88
2023-02-08T04:49:09.262Z,103444.78
2023-02-08T04:51:11.279Z,103449.13
2023-02-08T04:53:13.251Z,103458.13
2023-02-08T04:55:15.359Z,103459.22
2023-02-08T04:57:17.341Z,103446.22
2023-02-08T04:59:20.011Z,103448.44
2023-02-08T05:01:22.019Z,103452.00
2023-02-08T05:03:24.012Z,103452.28
2023-02-08T05:05:27.838Z,103446.84
2023-02-08T05:07:29.756Z,103444.75
2023-02-08T05:09:31.797Z,103453.72
2023-02-08T05:11:34.225Z,103452.34
2023-02-08T05:13:36.171Z,103452.47
2023-02-08T05:15:38.108Z,103447.03
2023-02-08T05:17:40.412Z,103449.72
2023-02-08T05:19:42.478Z,103450.94
2023-02-08T05:21:44.427Z,103440.75
2023-02-08T05:23:46.966Z,103434.03
2023-02-08T05:25:49.033Z,103441.81
2023-02-08T05:27:51.132Z,103447.38
2023-02-08T05:29:53.092Z,103442.97
2023-02-08T05:31:55.157Z,103449.03
2023-02-08T05:33:57.112Z,103449.03
2023-02-08T05:35:59.111Z,103451.88
2023-02-08T05:38:01.052Z,103451.94
2023-02-08T05:40:03.291Z,103452.84
2023-02-08T05:42:05.486Z,103456.59
2023-02-08T05:44:07.619Z,103459.25
2023-02-08T05:46:09.832Z,103466.13
2023-02-08T05:48:11.734Z,103455.44
2023-02-08T05:50:14.872Z,103469.13
2023-02-08T05:52:16.834Z,103461.03
2023-02-08T05:54:18.875Z,103461.44
2023-02-08T05:56:21.421Z,103478.44
2023-02-08T05:58:23.438Z,103475.63
2023-02-08T06:00:25.548Z,103471.47
2023-02-08T06:02:27.576Z,103469.19
2023-02-08T06:04:29.634Z,103470.97
2023-02-08T06:06:31.663Z,103469.97
2023-02-08T06:08:33.995Z,103468.38
2023-02-08T06:10:36.328Z,103466.41
2023-02-08T06:12:38.194Z,103471.69
2023-02-08T06:14:40.196Z,103473.38
2023-02-08T06:16:42.372Z,103462.16
2023-02-08T06:18:44.402Z,103463.50
2023-02-08T06:20:46.295Z,103467.53
2023-02-08T06:22:49.620Z,103470.09
2023-02-08T06:24:51.622Z,103473.56
2023-02-08T06:26:53.597Z,103471.78
2023-02-08T06:28:55.668Z,103466.84
2023-02-08T06:30:57.656Z,103461.56
2023-02-08T06:32:59.621Z,103456.91
2023-02-08T06:35:01.591Z,103451.34
2023-02-08T06:37:05.654Z,103449.97
2023-02-08T06:39:07.610Z,103456.25
2023-02-08T06:41:09.792Z,103445.63
2023-02-08T06:43:12.087Z,103443.84
2023-02-08T06:45:14.239Z,103446.84
2023-02-08T06:47:16.573Z,103448.53
2023-02-08T06:49:19.004Z,103445.94
2023-02-08T06:51:20.988Z,103454.78
2023-02-08T06:53:23.152Z,103445.94
2023-02-08T06:55:25.196Z,103454.94
2023-02-08T06:57:27.133Z,103445.09
2023-02-08T06:59:29.214Z,103446.88
2023-02-08T07:01:31.236Z,103452.09
2023-02-08T07:03:33.282Z,103447.03
2023-02-08T07:05:36.136Z,103449.88
2023-02-08T07:07:38.084Z,103452.31
2023-02-08T07:09:40.391Z,103447.31
2023-02-08T07:11:42.400Z,103451.41
2023-02-08T07:13:48.278Z,103450.06
2023-02-08T07:15:50.390Z,103450.34
2023-02-08T07:17:52.485Z,103444.66
2023-02-08T07:19:54.664Z,103449.66
2023-02-08T07:21:57.415Z,103445.16
2023-02-08T07:23:59.445Z,103445.13
2023-02-08T07:26:04.887Z,103457.09
2023-02-08T07:28:07.155Z,103447.69
2023-02-08T07:30:10.171Z,103447.22
2023-02-08T07:32:12.456Z,103446.31
2023-02-08T07:34:14.653Z,103447.84
2023-02-08T07:36:16.831Z,103446.03
2023-02-08T07:38:20.707Z,103439.66
2023-02-08T07:40:23.181Z,103440.97
2023-02-08T07:42:26.556Z,103436.50
2023-02-08T07:44:28.725Z,103438.63
2023-02-08T07:46:31.076Z,103436.81
2023-02-08T07:48:33.406Z,103435.78
2023-02-08T07:50:35.661Z,103435.97
2023-02-08T07:52:37.788Z,103433.84
2023-02-08T07:54:39.933Z,103433.72
2023-02-08T07:56:42.035Z,103434.34
2023-02-08T07:58:44.341Z,103431.66
2023-02-08T08:00:46.430Z,103436.53
2023-02-08T08:02:51.161Z,103439.41
2023-02-08T08:04:54.759Z,103439.31
2023-02-08T08:06:57.088Z,103440.31
2023-02-08T08:08:59.239Z,103446.72
2023-02-08T08:11:03.723Z,103450.00
2023-02-08T08:13:06.487Z,103442.50
2023-02-08T08:15:09.057Z,103437.69
2023-02-08T08:17:11.317Z,103434.72
2023-02-08T08:19:13.487Z,103435.44
2023-02-08T08:21:16.996Z,103429.28
2023-02-08T08:23:19.922Z,103421.66
2023-02-08T08:25:22.675Z,103420.75
2023-02-08T08:27:25.093Z,103419.09
2023-02-08T08:29:27.507Z,103417.53
2023-02-08T08:31:31.159Z,103424.72
2023-02-08T08:33:33.979Z,103430.34
2023-02-08T08:35:36.813Z,103428.13
2023-02-08T08:37:39.732Z,103436.94
2023-02-08T08:39:42.566Z,103428.66
2023-02-08T08:41:45.103Z,103431.47
2023-02-08T08:43:47.673Z,103424.91
2023-02-08T08:45:51.597Z,103427.59
2023-02-08T08:47:55.428Z,103423.03
2023-02-08T08:49:57.897Z,103421.56
2023-02-08T08:52:00.435Z,103419.91
2023-02-08T08:54:03.677Z,103422.44
2023-02-08T08:56:06.685Z,103427.06
2023-02-08T08:58:09.140Z,103428.38
2023-02-08T09:00:12.936Z,103425.06
2023-02-08T09:02:15.744Z,103420.25
2023-02-08T09:04:18.617Z,103420.25
2023-02-08T09:06:20.840Z,103428.38
2023-02-08T09:08:23.500Z,103420.53
2023-02-08T09:10:25.900Z,103412.41
2023-02-08T09:12:29.025Z,103415.44
2023-02-08T09:14:31.580Z,103418.94
2023-02-08T09:16:33.980Z,103419.56
2023-02-08T09:18:36.876Z,103414.81
2023-02-08T09:20:39.729Z,103417.78
2023-02-08T09:22:42.106Z,103408.97
2023-02-08T09:24:44.240Z,103408.09
2023-02-08T09:26:46.613Z,103413.56
2023-02-08T09:28:49.178Z,103403.84
2023-02-08T09:30:51.416Z,103406.34
2023-02-08T09:32:53.955Z,103408.19
2023-02-08T09:34:58.058Z,103401.94
2023-02-08T09:37:00.209Z,103409.38
2023-02-08T09:39:07.744Z,103402.31
2023-02-08T09:41:16.400Z,103394.59
2023-02-08T09:43:32.217Z,103392.31
2023-02-08T09:45:47.891Z,103390.69
2023-02-08T09:47:59.645Z,103394.41
2023-02-08T09:50:05.251Z,103401.22
2023-02-08T09:52:13.861Z,103404.22
2023-02-08T09:54:19.972Z,103407.75
2023-02-08T09:56:29.804Z,103407.38
2023-02-08T09:58:38.392Z,103412.56
2023-02-08T10:00:44.985Z,103409.81
2023-02-08T10:02:49.193Z,103412.03
2023-02-08T10:04:54.939Z,103423.94
2023-02-08T10:06:57.408Z,103420.69
2023-02-08T10:09:04.859Z,103419.78
2023-02-08T10:11:13.175Z,103413.59
2023-02-08T10:13:25.688Z,103410.56
2023-02-08T10:15:42.290Z,103404.84
2023-02-08T10:17:48.281Z,103413.75
2023-02-08T10:19:54.988Z,103408.19
2023-02-08T10:22:03.367Z,103408.69
2023-02-08T10:24:20.250Z,103409.47
2023-02-08T10:26:25.313Z,103404.75
2023-02-08T10:28:33.861Z,103412.50
2023-02-08T10:30:44.986Z,103408.94
2023-02-08T10:32:51.068Z,103400.03
2023-02-08T10:34:59.352Z,103403.09
2023-02-08T10:37:06.489Z,103401.16
2023-02-08T10:39:14.852Z,103406.28
2023-02-08T10:41:23.948Z,103404.38
2023-02-08T10:43:33.023Z,103404.50
2023-02-08T10:45:42.220Z,103399.63
2023-02-08T10:47:49.483Z,103388.50
2023-02-08T10:49:58.795Z,103390.69
2023-02-08T10:52:01.255Z,103390.00
2023-02-08T10:54:03.634Z,103393.34
2023-02-08T10:56:07.254Z,103385.13
2023-02-08T10:58:16.982Z,103381.03
2023-02-08T11:00:23.556Z,103381.94
2023-02-08T11:02:31.889Z,103386.31
2023-02-08T11:04:34.155Z,103388.56
2023-02-08T11:06:37.842Z,103374.13
2023-02-08T11:08:55.566Z,103380.56
2023-02-08T11:11:01.393Z,103376.91
2023-02-08T11:13:16.075Z,103370.53
2023-02-08T11:15:23.552Z,103367.94
2023-02-08T11:17:31.735Z,103370.47
2023-02-08T11:19:42.983Z,103360.00
2023-02-08T11:21:50.916Z,103364.81
2023-02-08T11:23:55.814Z,103357.50
2023-02-08T11:26:04.252Z,103355.94
2023-02-08T11:28:25.829Z,103350.47
2023-02-08T11:30:28.020Z,103354.75
2023-02-08T11:32:30.331Z,103356.59
2023-02-08T11:34:35.571Z,103351.75
2023-02-08T11:36:47.286Z,103347.19
2023-02-08T11:38:49.570Z,103348.09
2023-02-08T11:40:53.776Z,103351.19
2023-02-08T11:42:57.032Z,103333.84
2023-02-08T11:45:00.292Z,103340.97
2023-02-08T11:47:06.215Z,103340.53
2023-02-08T11:49:23.657Z,103333.31
2023-02-08T11:51:30.419Z,103342.16
2023-02-08T11:53:37.909Z,103332.78
2023-02-08T11:55:41.085Z,103329.75
2023-02-08T11:57:49.644Z,103322.75
2023-02-08T12:00:10.216Z,103318.97
2023-02-08T12:02:18.759Z,103308.91
2023-02-08T12:04:22.778Z,103301.56
2023-02-08T12:06:31.240Z,103302.97
2023-02-08T12:08:39.773Z,103296.38
2023-02-08T12:10:46.451Z,103295.59
2023-02-08T12:12:53.576Z,103287.03
2023-02-08T12:14:59.307Z,103283.13
2023-02-08T12:17:12.349Z,103277.59
2023-02-08T12:19:27.612Z,103273.56
2023-02-08T12:21:36.229Z,103269.88
2023-02-08T12:23:42.917Z,103263.69
2023-02-08T12:25:49.901Z,103253.00
2023-02-08T12:27:56.926Z,103248.81
2023-02-08T12:30:03.957Z,103246.66
2023-02-08T12:32:24.919Z,103246.34
2023-02-08T12:34:29.956Z,103241.72
2023-02-08T12:36:33.233Z,103239.66
2023-02-08T12:38:44.728Z,103235.31
2023-02-08T12:40:53.324Z,103223.38
2023-02-08T12:43:03.990Z,103221.88
2023-02-08T12:45:17.828Z,103215.75
2023-02-08T12:47:26.261Z,103211.25
2023-02-08T12:49:47.210Z,103206.66
2023-02-08T12:51:49.466Z,103197.38
2023-02-08T12:53:58.063Z,103196.78
2023-02-08T12:56:07.144Z,103192.94
2023-02-08T12:58:12.724Z,103188.31
2023-02-08T13:00:21.204Z,103184.34
2023-02-08T13:02:29.835Z,103186.13
2023-02-08T13:04:38.769Z,103175.06
2023-02-08T13:06:45.249Z,103174.28
2023-02-08T13:08:52.701Z,103170.44
2023-02-08T13:11:17.864Z,103163.28
2023-02-08T13:13:26.805Z,103154.81
2023-02-08T13:15:33.633Z,103154.16
2023-02-08T13:17:39.751Z,103152.78
2023-02-08T13:19:59.790Z,103152.34
2023-02-08T13:22:05.929Z,103149.47
2023-02-08T13:24:23.408Z,103133.97
2023-02-08T13:26:31.778Z,103131.56
2023-02-08T13:28:34.735Z,103130.59
2023-02-08T13:30:40.286Z,103122.06
2023-02-08T13:32:46.989Z,103114.97
2023-02-08T13:34:55.604Z,103117.53
2023-02-08T13:37:02.195Z,103103.63
2023-02-08T13:39:08.348Z,103105.25
2023-02-08T13:41:16.613Z,103108.94
2023-02-08T13:43:34.734Z,103102.19
2023-02-08T13:45:44.449Z,103099.66
2023-02-08T13:47:49.569Z,103088.22
2023-02-08T13:49:54.162Z,103090.78
2023-02-08T13:51:56.402Z,103078.03
2023-02-08T13:54:00.755Z,103074.63
2023-02-08T13:56:06.022Z,103073.91
2023-02-08T13:58:14.644Z,103073.03
2023-02-08T14:00:25.192Z,103069.91
2023-02-08T14:02:28.658Z,103064.00
2023-02-08T14:04:35.099Z,103064.06
2023-02-08T14:06:41.413Z,103068.81
2023-02-08T14:08:52.370Z,103062.16
2023-02-08T14:11:01.275Z,103058.16
2023-02-08T14:13:14.276Z,103073.13
2023-02-08T14:15:17.172Z,103060.97
2023-02-08T14:17:27.815Z,103058.25
2023-02-08T14:19:30.916Z,103059.06
2023-02-08T14:21:38.612Z,103060.44
2023-02-08T14:23:41.204Z,103060.88
2023-02-08T14:25:47.604Z,103064.78
2023-02-08T14:27:54.839Z,103049.31
2023-02-08T14:30:02.872Z,103046.94
2023-02-08T14:32:05.940Z,103042.59
2023-02-08T14:34:22.787Z,103043.13
2023-02-08T14:36:29.966Z,103031.50
2023-02-08T14:38:38.364Z,103030.94
2023-02-08T14:40:49.091Z,103035.47
2023-02-08T14:42:57.616Z,103024.00
2023-02-08T14:45:02.082Z,103025.50
2023-02-08T14:47:10.690Z,103024.00
2023-02-08T14:49:16.194Z,103022.41
2023-02-08T14:51:25.342Z,103006.44
2023-02-08T14:53:34.874Z,103003.69
2023-02-08T14:55:46.045Z,102996.78
2023-02-08T14:57:49.333Z,102991.19
2023-02-08T14:59:54.357Z,103000.81
2023-02-08T15:02:00.864Z,102995.38
2023-02-08T15:04:04.079Z,103001.56
2023-02-08T15:06:12.640Z,102999.78
2023-02-08T15:08:21.896Z,102982.13
2023-02-08T15:10:26.376Z,102983.38
2023-02-08T15:12:32.786Z,102987.88
2023-02-08T15:14:37.135Z,102983.44
2023-02-08T15:16:44.124Z,102991.69
2023-02-08T15:18:49.449Z,102991.69
2023-02-08T15:20:59.655Z,102980.97
2023-02-08T15:23:06.687Z,102983.59
2023-02-08T15:25:22.302Z,102987.06
2023-02-08T15:27:27.732Z,102977.91
2023-02-08T15:29:43.986Z,102984.06
2023-02-08T15:31:47.845Z,102971.28
2023-02-08T15:33:52.857Z,102973.75
2023-02-08T15:36:00.488Z,102970.47
2023-02-08T15:38:05.917Z,102969.03
2023-02-08T15:40:22.923Z,102969.75
2023-02-08T15:42:29.339Z,102971.28
2023-02-08T15:44:35.183Z,102968.72
2023-02-08T15:46:39.212Z,102968.53
2023-02-08T15:48:45.028Z,102965.44
2023-02-08T15:50:47.686Z,102960.56
2023-02-08T15:52:58.177Z,102967.47
2023-02-08T15:55:00.618Z,102964.28
2023-02-08T15:57:06.947Z,102969.88
2023-02-08T15:59:21.348Z,102970.63
2023-02-08T16:01:25.741Z,102972.44
2023-02-08T16:03:30.030Z,102974.56
2023-02-08T16:05:34.061Z,102966.38
2023-02-08T16:07:40.153Z,102968.44
2023-02-08T16:09:48.047Z,102963.38
2023-02-08T16:11:50.933Z,102954.63
2023-02-08T16:13:57.805Z,102955.03
2023-02-08T16:16:16.985Z,102958.25
2023-02-08T16:18:30.287Z,102952.06
2023-02-08T16:20:35.549Z,102951.09
2023-02-08T16:22:38.221Z,102953.59
2023-02-08T16:24:40.757Z,102948.84
2023-02-08T16:26:45.365Z,102956.00
2023-02-08T16:28:53.991Z,102951.66
2023-02-08T16:30:58.740Z,102953.53
2023-02-08T16:33:07.509Z,102963.13
2023-02-08T16:35:14.064Z,102957.47
2023-02-08T16:37:22.960Z,102953.75
2023-02-08T16:39:31.663Z,102958.13
2023-02-08T16:42:00.889Z,102959.38
2023-02-08T16:44:12.396Z,102959.13
2023-02-08T16:46:17.239Z,102956.28
2023-02-08T16:48:27.759Z,102964.13
2023-02-08T16:50:31.831Z,102957.50
2023-02-08T16:52:35.094Z,102962.06
2023-02-08T16:54:37.739Z,102958.38
2023-02-08T16:56:42.139Z,102956.03
2023-02-08T16:58:44.788Z,102952.25
2023-02-08T17:00:47.416Z,102944.75
2023-02-08T17:02:51.207Z,102940.63
2023-02-08T17:04:55.177Z,102942.47
2023-02-08T17:06:57.656Z,102940.69
2023-02-08T17:09:01.672Z,102943.44
2023-02-08T17:11:04.316Z,102940.72
2023-02-08T17:13:19.937Z,102941.69
2023-02-08T17:15:25.273Z,102936.69
2023-02-08T17:17:28.239Z,102942.31
2023-02-08T17:19:30.870Z,102944.81
2023-02-08T17:21:34.162Z,102941.63
2023-02-08T17:23:36.871Z,102958.22
2023-02-08T17:25:39.895Z,102960.59
2023-02-08T17:27:42.469Z,102963.38
2023-02-08T17:29:45.206Z,102966.41
2023-02-08T17:31:48.692Z,102966.13
2023-02-08T17:33:51.662Z,102966.03
2023-02-08T17:35:54.377Z,102954.47
2023-02-08T17:37:58.878Z,102970.09
2023-02-08T17:40:01.356Z,102956.13
2023-02-08T17:42:04.054Z,102950.59
2023-02-08T17:44:07.493Z,102953.56
2023-02-08T17:46:16.266Z,102948.03
2023-02-08T17:48:19.743Z,102957.72
2023-02-08T17:50:23.926Z,102949.00
2023-02-08T17:52:26.560Z,102954.03
2023-02-08T17:54:29.117Z,102950.69
2023-02-08T17:56:35.756Z,102950.81
2023-02-08T17:58:39.204Z,102951.97
2023-02-08T18:00:42.433Z,102952.53
2023-02-08T18:02:47.768Z,102947.66
2023-02-08T18:04:50.389Z,102951.56
2023-02-08T18:06:53.047Z,102945.97
2023-02-08T18:08:56.157Z,102944.28
2023-02-08T18:11:04.332Z,102950.69
2023-02-08T18:13:07.220Z,102948.03
2023-02-08T18:15:13.991Z,102940.44
2023-02-08T18:17:16.538Z,102948.03
2023-02-08T18:19:19.852Z,102945.78
2023-02-08T18:21:26.021Z,102944.56
2023-02-08T18:23:29.096Z,102945.66
2023-02-08T18:25:32.391Z,102947.13
2023-02-08T18:27:34.947Z,102941.13
2023-02-08T18:29:37.591Z,102943.97
2023-02-08T18:31:41.571Z,102940.13
2023-02-08T18:33:44.787Z,102948.88
2023-02-08T18:35:49.579Z,102946.97
2023-02-08T18:37:53.778Z,102947.28
2023-02-08T18:39:56.219Z,102946.38
2023-02-08T18:41:58.796Z,102949.94
2023-02-08T18:44:02.788Z,102950.09
2023-02-08T18:46:10.222Z,102955.75
2023-02-08T18:48:13.658Z,102948.06
2023-02-08T18:50:16.461Z,102952.06
2023-02-08T18:52:18.780Z,102954.63
2023-02-08T18:54:21.989Z,102950.38
2023-02-08T18:56:26.837Z,102949.47
2023-02-08T18:58:29.824Z,102958.59
2023-02-08T19:00:32.414Z,102954.53
2023-02-08T19:02:35.926Z,102961.94
2023-02-08T19:04:39.894Z,102964.88
2023-02-08T19:06:42.373Z,102963.72
2023-02-08T19:08:45.937Z,102963.44
2023-02-08T19:10:48.209Z,102961.53
2023-02-08T19:12:50.943Z,102955.31
2023-02-08T19:14:53.196Z,102954.81
2023-02-08T19:16:56.295Z,102955.91
2023-02-08T19:19:01.335Z,102953.91
2023-02-08T19:21:06.366Z,102953.91
2023-02-08T19:23:08.854Z,102947.09
2023-02-08T19:25:11.326Z,102948.59
2023-02-08T19:27:13.901Z,102944.38
2023-02-08T19:29:22.243Z,102936.59
2023-02-08T19:31:26.458Z,102940.03
2023-02-08T19:33:28.991Z,102933.38
2023-02-08T19:35:31.334Z,102932.16
2023-02-08T19:37:33.733Z,102927.63
2023-02-08T19:39:35.961Z,102927.81
2023-02-08T19:41:39.680Z,102927.66
2023-02-08T19:43:41.996Z,102928.84
2023-02-08T19:45:45.319Z,102932.34
2023-02-08T19:47:51.672Z,102924.56
2023-02-08T19:49:55.234Z,102935.63
2023-02-08T19:51:57.645Z,102935.94
2023-02-08T19:54:01.164Z,102935.25
2023-02-08T19:56:06.781Z,102940.47
2023-02-08T19:58:10.811Z,102933.78
2023-02-08T20:00:23.493Z,102937.84
2023-02-08T20:02:27.817Z,102934.50
2023-02-08T20:04:30.367Z,102933.75
2023-02-08T20:06:36.063Z,102936.88
2023-02-08T20:08:38.908Z,102926.53
2023-02-08T20:10:42.664Z,102929.19
2023-02-08T20:12:45.384Z,102928.97
2023-02-08T20:14:48.632Z,102927.19
2023-02-08T20:16:51.707Z,102922.09
2023-02-08T20:18:56.354Z,102922.34
2023-02-08T20:21:02.323Z,102926.34
2023-02-08T20:23:14.091Z,102936.69
2023-02-08T20:25:20.746Z,102929.41
2023-02-08T20:27:23.883Z,102937.38
2023-02-08T20:29:28.224Z,102933.75
2023-02-08T20:31:33.908Z,102932.09
2023-02-08T20:33:36.337Z,102933.66
2023-02-08T20:35:38.660Z,102929.56
2023-02-08T20:37:41.870Z,102926.88
2023-02-08T20:39:44.076Z,102935.88
2023-02-08T20:41:47.647Z,102920.50
2023-02-08T20:43:50.348Z,102921.84
2023-02-08T20:45:52.601Z,102915.59
2023-02-08T20:47:55.089Z,102906.97
2023-02-08T20:49:58.436Z,102906.66
2023-02-08T20:52:00.902Z,102901.97
2023-02-08T20:54:04.493Z,102911.53
2023-02-08T20:56:09.691Z,102915.66
2023-02-08T20:58:11.750Z,102911.75
2023-02-08T21:00:14.774Z,102893.34
2023-02-08T21:02:24.589Z,102890.66
2023-02-08T21:04:27.467Z,102897.00
2023-02-08T21:06:34.121Z,102898.78
2023-02-08T21:08:36.375Z,102890.22
2023-02-08T21:10:38.665Z,102892.13
2023-02-08T21:12:40.839Z,102904.22
2023-02-08T21:14:44.749Z,102905.09
2023-02-08T21:16:49.053Z,102912.34
2023-02-08T21:18:51.210Z,102914.34
2023-02-08T21:20:54.067Z,102921.47
2023-02-08T21:22:56.540Z,102927.91
2023-02-08T21:24:58.701Z,102914.44
2023-02-08T21:27:01.610Z,102917.66
2023-02-08T21:29:06.615Z,102910.75
2023-02-08T21:31:13.270Z,102912.44
2023-02-08T21:33:16.504Z,102910.75
2023-02-08T21:35:21.003Z,102922.13
2023-02-08T21:37:24.552Z,102921.78
2023-02-08T21:39:27.175Z,102926.78
2023-02-08T21:41:32.797Z,102919.22
2023-02-08T21:43:36.622Z,102914.66
2023-02-08T21:45:39.590Z,102912.31
2023-02-08T21:47:42.286Z,102900.19
2023-02-08T21:49:47.617Z,102907.53
2023-02-08T21:51:52.889Z,102909.88
2023-02-08T21:53:58.209Z,102903.53
2023-02-08T21:56:00.449Z,102901.00
2023-02-08T21:58:02.769Z,102903.66
2023-02-08T22:00:08.730Z,102894.31
2023-02-08T22:02:16.425Z,102891.31
2023-02-08T22:04:18.470Z,102890.09
2023-02-08T22:06:20.540Z,102897.00
2023-02-08T22:08:22.696Z,102893.22
2023-02-08T22:10:27.500Z,102897.88
2023-02-08T22:12:29.566Z,102896.44
2023-02-08T22:14:35.284Z,102897.22
2023-02-08T22:16:37.460Z,102892.56
2023-02-08T22:18:41.542Z,102876.97
2023-02-08T22:20:45.126Z,102871.00
2023-02-08T22:22:47.396Z,102870.00
2023-02-08T22:24:49.435Z,102880.22
2023-02-08T22:26:51.402Z,102869.53
2023-02-08T22:28:54.053Z,102871.66
2023-02-08T22:30:56.157Z,102871.88
2023-02-08T22:32:58.213Z,102878.34
2023-02-08T22:35:00.310Z,102882.31
2023-02-08T22:37:04.362Z,102876.56
2023-02-08T22:39:07.249Z,102874.53
2023-02-08T22:41:11.271Z,102877.44
2023-02-08T22:43:13.339Z,102877.44
2023-02-08T22:45:15.384Z,102868.53
2023-02-08T22:47:17.425Z,102873.09
2023-02-08T22:49:19.564Z,102873.66
2023-02-08T22:51:23.697Z,102867.44
2023-02-08T22:53:26.644Z,102873.66
2023-02-08T22:55:28.891Z,102868.66
2023-02-08T22:57:32.232Z,102878.75
2023-02-08T22:59:34.249Z,102878.44
2023-02-08T23:01:36.989Z,102877.09
2023-02-08T23:03:39.379Z,102876.88
2023-02-08T23:05:43.024Z,102884.97
2023-02-08T23:07:45.179Z,102877.78
2023-02-08T23:09:47.339Z,102887.78
2023-02-08T23:11:49.369Z,102880.66
2023-02-08T23:13:51.375Z,102881.31
2023-02-08T23:15:53.384Z,102881.41
2023-02-08T23:17:55.707Z,102880.75
2023-02-08T23:19:57.785Z,102879.53
2023-02-08T23:22:00.565Z,102880.41
2023-02-08T23:24:02.592Z,102876.72
2023-02-08T23:26:07.534Z,102877.09
2023-02-08T23:28:11.434Z,102880.53
2023-02-08T23:30:13.943Z,102871.41
2023-02-08T23:32:15.920Z,102871.19
2023-02-08T23:34:19.130Z,102875.63
2023-02-08T23:36:23.425Z,102874.53
2023-02-08T23:38:25.711Z,102880.53
2023-02-08T23:40:27.707Z,102882.41
2023-02-08T23:42:29.659Z,102874.06
2023-02-08T23:44:31.751Z,102878.53